Time;durP1;ratioP1;P1;durP2;ratioP2;P2;SDS_P1;SDS_P2;PMS_P1;PMS_P2;Temp;Humidity;BMP_temperature;BMP_pressure;BME280_temperature;BME280_humidity;BME280_pressure;Samples;Min_cycle;Max_cycle;Signal;HPM_P1;HPM_P2
2022/05/03 00:02:28;;;;;;;18.03;4.83;;;6.20;1.00;;;;;;5107011;27;20442;-50
2022/05/03 00:05:02;;;;;;;6.07;4.13;;;6.10;1.00;;;;;;5105152;27;20433;-49
2022/05/03 00:07:50;;;;;;;11.53;4.77;;;6.10;1.00;;;;;;5103871;28;20504;-50
2022/05/03 00:10:23;;;;;;;8.07;4.27;;;6.10;1.00;;;;;;5102936;28;20466;-50
2022/05/03 00:12:56;;;;;;;4.83;3.90;;;6.10;1.00;;;;;;5100414;28;20772;-50
2022/05/03 00:15:24;;;;;;;7.53;3.80;;;6.00;1.00;;;;;;5106787;27;20488;-49
2022/05/03 00:17:51;;;;;;;7.87;4.37;;;6.00;1.00;;;;;;5100154;28;20442;-50
2022/05/03 00:20:17;;;;;;;5.07;4.17;;;6.00;1.00;;;;;;5104248;28;20446;-50
2022/05/03 00:22:43;;;;;;;6.50;4.37;;;6.00;1.00;;;;;;5101147;28;20462;-50
2022/05/03 00:25:09;;;;;;;9.27;3.80;;;6.00;1.00;;;;;;5105019;28;20487;-50
2022/05/03 00:27:35;;;;;;;6.03;4.10;;;5.90;1.00;;;;;;5099996;28;20189;-50
2022/05/03 00:30:03;;;;;;;5.43;4.10;;;5.90;1.00;;;;;;5104185;28;20602;-50
2022/05/03 00:32:29;;;;;;;6.00;4.17;;;5.90;1.00;;;;;;5102624;28;20201;-50
2022/05/03 00:34:58;;;;;;;5.10;4.10;;;5.90;1.00;;;;;;5102983;28;20815;-49
2022/05/03 00:37:23;;;;;;;5.37;3.73;;;5.90;1.00;;;;;;5099334;28;20426;-50
2022/05/03 00:39:49;;;;;;;5.93;3.97;;;5.90;1.00;;;;;;5100526;28;20839;-49
2022/05/03 00:42:25;;;;;;;5.40;4.23;;;5.90;1.00;;;;;;5099816;28;20189;-50
2022/05/03 00:45:28;;;;;;;5.17;3.57;;;5.90;1.00;;;;;;5111258;28;20184;-50
2022/05/03 00:48:03;;;;;;;6.60;4.10;;;5.80;1.00;;;;;;5106709;28;20433;-50
2022/05/03 00:50:53;;;;;;;4.33;3.70;;;5.80;1.00;;;;;;5099711;28;20907;-50
2022/05/03 00:53:45;;;;;;;3.77;3.27;;;5.90;1.00;;;;;;5104165;28;20437;-49
2022/05/03 00:56:30;;;;;;;5.37;3.60;;;5.80;1.00;;;;;;5066663;27;20525;-49
2022/05/03 00:59:28;;;;;;;6.20;4.00;;;5.80;1.00;;;;;;5107103;28;20422;-50
2022/05/03 01:02:05;;;;;;;15.20;4.77;;;5.80;1.00;;;;;;5106345;28;20453;-50
2022/05/03 01:04:49;;;;;;;9.07;5.00;;;5.80;1.00;;;;;;5104160;28;20461;-50
2022/05/03 01:07:33;;;;;;;10.17;5.27;;;5.80;1.00;;;;;;5099688;28;20441;-50
2022/05/03 01:10:05;;;;;;;7.70;4.77;;;5.90;1.00;;;;;;5105169;28;20475;-50
2022/05/03 01:12:58;;;;;;;12.30;5.47;;;5.90;1.00;;;;;;5104803;27;20438;-50
2022/05/03 01:15:29;;;;;;;8.47;5.43;;;6.00;1.00;;;;;;5107166;27;20430;-50
2022/05/03 01:18:26;;;;;;;10.30;5.73;;;6.00;1.00;;;;;;5099428;28;20437;-50
2022/05/03 01:21:13;;;;;;;7.90;5.83;;;6.00;1.00;;;;;;5105045;28;20438;-50
2022/05/03 01:24:02;;;;;;;9.30;5.50;;;6.10;1.00;;;;;;5109850;27;20556;-50
2022/05/03 01:26:49;;;;;;;8.37;5.70;;;6.10;1.00;;;;;;5104308;28;20430;-50
2022/05/03 01:29:31;;;;;;;13.33;6.37;;;6.20;22.10;;;;;;5105494;27;20433;-50
2022/05/03 01:32:04;;;;;;;9.60;5.47;;;6.30;31.70;;;;;;5110763;28;20430;-50
2022/05/03 01:34:30;;;;;;;9.57;5.97;;;6.30;20.30;;;;;;5105534;27;20509;-50
2022/05/03 01:37:30;;;;;;;12.23;6.70;;;6.30;58.00;;;;;;5110342;28;20507;-50
2022/05/03 01:40:04;;;;;;;10.93;7.10;;;6.40;41.70;;;;;;5109824;28;20915;-50
2022/05/03 01:42:58;;;;;;;9.27;6.27;;;6.40;48.10;;;;;;5109182;28;20525;-50
2022/05/03 01:45:32;;;;;;;9.10;6.63;;;6.30;53.60;;;;;;5108152;27;20437;-50
2022/05/03 01:48:18;;;;;;;13.50;7.53;;;6.30;93.70;;;;;;5100131;28;20438;-50
2022/05/03 01:51:14;;;;;;;18.80;7.03;;;6.20;99.90;;;;;;5097434;28;20473;-50
2022/05/03 01:53:45;;;;;;;8.93;6.90;;;6.20;99.90;;;;;;5100496;28;20444;-50
2022/05/03 01:56:44;;;;;;;10.67;7.40;;;6.20;99.90;;;;;;5097273;27;20475;-50
2022/05/03 01:59:39;;;;;;;10.70;6.70;;;6.10;99.90;;;;;;5104658;28;20454;-50
2022/05/03 02:02:30;;;;;;;9.63;7.00;;;6.10;99.90;;;;;;5103622;28;20434;-50
2022/05/03 02:05:04;;;;;;;12.13;7.73;;;6.10;99.90;;;;;;5104601;27;20971;-50
2022/05/03 02:07:40;;;;;;;12.77;7.10;;;6.10;99.90;;;;;;5099269;28;20423;-50
2022/05/03 02:10:36;;;;;;;8.87;6.10;;;6.00;99.90;;;;;;5106626;27;21056;-50
2022/05/03 02:13:14;;;;;;;9.30;6.50;;;6.00;99.90;;;;;;5089317;28;20426;-50
2022/05/03 02:15:44;;;;;;;13.20;6.70;;;6.00;99.90;;;;;;5108365;27;21002;-50
2022/05/03 02:18:29;;;;;;;11.80;7.00;;;6.00;99.90;;;;;;5108988;27;20508;-50
2022/05/03 02:21:15;;;;;;;12.47;6.20;;;6.00;99.90;;;;;;5107008;28;20443;-50
2022/05/03 02:23:58;;;;;;;10.17;6.40;;;6.00;99.90;;;;;;5100303;28;20848;-50
2022/05/03 02:26:49;;;;;;;9.63;6.80;;;6.00;99.90;;;;;;5105398;28;20517;-50
2022/05/03 02:29:17;;;;;;;14.90;7.10;;;6.00;99.90;;;;;;5106249;28;20485;-50
2022/05/03 02:32:03;;;;;;;9.27;6.07;;;6.00;99.90;;;;;;5104394;27;20435;-55
2022/05/03 02:34:48;;;;;;;12.80;7.03;;;6.00;99.90;;;;;;5105228;28;20419;-53
2022/05/03 02:37:18;;;;;;;11.67;6.73;;;6.00;99.90;;;;;;5107863;28;20464;-50
2022/05/03 02:39:47;;;;;;;10.10;7.03;;;6.00;99.90;;;;;;5103432;28;20468;-50
2022/05/03 02:42:14;;;;;;;15.73;6.87;;;6.00;99.90;;;;;;5108989;28;20429;-50
2022/05/03 02:44:40;;;;;;;8.17;6.30;;;6.00;99.90;;;;;;5094293;28;20481;-50
2022/05/03 02:47:10;;;;;;;8.97;6.40;;;6.00;99.90;;;;;;5103082;28;20921;-50
2022/05/03 02:49:57;;;;;;;8.67;6.10;;;6.00;99.90;;;;;;5110183;28;20427;-50
2022/05/03 02:52:35;;;;;;;12.93;7.07;;;6.00;99.90;;;;;;5103293;28;20410;-51
2022/05/03 02:55:15;;;;;;;8.70;6.73;;;6.00;99.90;;;;;;5104087;28;21094;-50
2022/05/03 02:58:35;;;;;;;14.37;7.30;;;6.00;99.90;;;;;;5102569;27;20430;-50
2022/05/03 03:04:55;;;;;;;16.80;7.27;;;6.00;99.90;;;;;;5103567;28;20481;-50
2022/05/03 03:07:22;;;;;;;13.20;8.10;;;6.10;99.90;;;;;;5100169;28;20441;-50
2022/05/03 03:09:54;;;;;;;12.83;7.80;;;6.00;99.90;;;;;;5103564;28;20771;-50
2022/05/03 03:12:36;;;;;;;12.53;7.23;;;6.00;99.90;;;;;;5090023;28;20427;-50
2022/05/03 03:15:09;;;;;;;9.90;7.17;;;6.00;99.90;;;;;;5105945;28;20491;-50
2022/05/03 03:17:42;;;;;;;13.17;7.43;;;6.00;1.00;;;;;;5105680;28;20430;-50
2022/05/03 03:20:12;;;;;;;11.17;7.20;;;6.10;1.00;;;;;;5104656;28;20469;-50
2022/05/03 03:22:44;;;;;;;11.40;8.27;;;6.10;99.90;;;;;;5104363;28;20430;-50
2022/05/03 03:25:12;;;;;;;15.63;8.27;;;6.10;99.90;;;;;;5101123;28;20465;-51
2022/05/03 03:27:39;;;;;;;12.43;8.23;;;6.10;1.00;;;;;;5104371;28;20439;-50
2022/05/03 03:30:06;;;;;;;12.80;8.17;;;6.10;99.90;;;;;;5098703;28;20743;-50
2022/05/03 03:32:35;;;;;;;10.90;8.20;;;6.10;1.00;;;;;;5104940;28;20431;-50
2022/05/03 03:35:01;;;;;;;11.07;7.60;;;6.00;1.00;;;;;;5098680;28;20420;-50
2022/05/03 03:37:30;;;;;;;14.13;8.87;;;6.00;1.00;;;;;;5103316;28;20908;-50
2022/05/03 03:39:56;;;;;;;14.97;9.13;;;5.90;1.00;;;;;;5100143;28;20825;-50
2022/05/03 03:42:21;;;;;;;12.90;8.20;;;5.90;1.00;;;;;;5105751;28;20402;-50
2022/05/03 03:44:48;;;;;;;15.63;7.93;;;5.80;1.00;;;;;;5097554;28;20459;-50
2022/05/03 03:47:15;;;;;;;11.87;8.93;;;5.80;1.00;;;;;;5105666;27;20211;-50
2022/05/03 03:49:41;;;;;;;14.20;9.17;;;5.80;1.00;;;;;;5104323;28;20421;-50
2022/05/03 03:52:08;;;;;;;11.53;7.90;;;5.80;1.00;;;;;;5104573;28;20426;-50
2022/05/03 03:54:35;;;;;;;16.10;8.80;;;5.80;1.00;;;;;;5096710;28;20441;-50
2022/05/03 03:57:03;;;;;;;19.30;9.40;;;5.80;1.00;;;;;;5105443;27;20431;-50
2022/05/03 03:59:31;;;;;;;18.17;10.20;;;5.80;9.20;;;;;;5096626;28;20521;-50
2022/05/03 04:02:01;;;;;;;18.80;10.60;;;5.90;1.00;;;;;;5105777;28;20973;-50
2022/05/03 04:04:30;;;;;;;25.33;11.13;;;5.90;6.70;;;;;;5103232;28;20470;-50
2022/05/03 04:06:56;;;;;;;20.27;10.53;;;5.90;14.00;;;;;;5099668;27;20434;-50
2022/05/03 04:09:22;;;;;;;17.83;11.00;;;6.00;23.40;;;;;;5095607;28;20964;-50
2022/05/03 04:11:48;;;;;;;24.47;11.10;;;6.00;3.30;;;;;;5101053;28;20441;-50
2022/05/03 04:14:14;;;;;;;19.53;10.97;;;6.00;1.00;;;;;;5103801;28;20200;-50
2022/05/03 04:16:40;;;;;;;22.97;10.53;;;6.00;2.60;;;;;;5099647;28;20800;-50
2022/05/03 04:19:06;;;;;;;17.17;9.77;;;6.10;99.90;;;;;;5100754;28;20465;-50
2022/05/03 04:21:32;;;;;;;19.10;10.60;;;6.20;99.90;;;;;;5105183;28;20439;-50
2022/05/03 04:23:59;;;;;;;17.70;10.90;;;6.30;8.00;;;;;;5107908;28;20518;-51
2022/05/03 04:26:25;;;;;;;24.13;9.90;;;6.40;1.00;;;;;;5090493;28;20348;-50
2022/05/03 04:28:58;;;;;;;15.57;9.70;;;6.50;1.00;;;;;;5101190;28;21276;-50
2022/05/03 04:31:27;;;;;;;18.20;11.07;;;6.60;1.00;;;;;;5101589;28;20448;-50
2022/05/03 04:33:53;;;;;;;17.23;9.90;;;6.60;1.00;;;;;;5099071;28;20421;-50
2022/05/03 04:36:19;;;;;;;15.10;9.40;;;6.60;1.00;;;;;;5105922;28;20422;-50
2022/05/03 04:38:48;;;;;;;14.70;9.43;;;6.70;99.90;;;;;;5101341;28;20427;-50
2022/05/03 04:41:14;;;;;;;15.10;9.50;;;6.70;99.90;;;;;;5101787;28;20430;-50
2022/05/03 04:43:40;;;;;;;19.07;9.00;;;6.80;99.90;;;;;;5098166;28;20465;-50
2022/05/03 04:46:06;;;;;;;13.23;9.03;;;6.90;99.90;;;;;;5097177;28;20192;-50
2022/05/03 04:48:31;;;;;;;12.70;9.30;;;7.00;99.90;;;;;;5103998;28;20203;-50
2022/05/03 04:50:57;;;;;;;17.33;10.07;;;7.00;99.90;;;;;;5103957;28;20196;-50
2022/05/03 04:53:22;;;;;;;16.60;9.97;;;7.10;99.90;;;;;;5096533;28;20314;-50
2022/05/03 04:55:49;;;;;;;19.10;10.20;;;7.10;99.90;;;;;;5102499;28;20192;-50
2022/05/03 04:58:14;;;;;;;16.77;10.17;;;7.20;99.90;;;;;;5102504;28;20201;-50
2022/05/03 05:00:40;;;;;;;15.67;9.73;;;7.30;99.90;;;;;;5104703;28;20430;-50
2022/05/03 05:03:06;;;;;;;17.50;10.50;;;7.40;99.90;;;;;;5097567;28;20215;-50
2022/05/03 05:05:32;;;;;;;25.13;10.73;;;7.50;99.90;;;;;;5103904;28;20422;-50
2022/05/03 05:08:04;;;;;;;23.27;11.93;;;7.60;99.90;;;;;;5104967;28;20204;-50
2022/05/03 05:10:32;;;;;;;33.60;10.90;;;7.60;99.90;;;;;;5101345;28;20200;-50
2022/05/03 05:13:01;;;;;;;28.23;11.57;;;7.70;99.90;;;;;;5095589;28;20422;-50
2022/05/03 05:15:28;;;;;;;17.20;11.00;;;7.80;99.90;;;;;;5102584;28;20426;-50
2022/05/03 05:17:58;;;;;;;14.60;10.07;;;7.90;99.90;;;;;;5100643;28;20603;-50
2022/05/03 05:20:25;;;;;;;17.27;10.17;;;7.90;77.60;;;;;;5095631;28;20449;-50
2022/05/03 05:22:51;;;;;;;15.23;10.03;;;8.00;54.70;;;;;;5096526;28;20454;-50
2022/05/03 05:25:18;;;;;;;16.53;10.90;;;8.00;59.60;;;;;;5107068;28;20426;-50
2022/05/03 05:27:43;;;;;;;23.80;11.40;;;8.00;32.30;;;;;;5098273;28;20415;-50
2022/05/03 05:30:09;;;;;;;16.13;10.73;;;8.10;17.80;;;;;;5102558;28;20761;-50
2022/05/03 05:32:36;;;;;;;20.07;11.23;;;8.20;1.00;;;;;;5106837;27;20204;-50
2022/05/03 05:35:04;;;;;;;17.23;10.40;;;8.10;1.00;;;;;;5102626;28;20429;-50
2022/05/03 05:37:30;;;;;;;14.63;10.80;;;8.10;1.00;;;;;;5102885;28;20492;-50
2022/05/03 05:39:55;;;;;;;24.00;11.43;;;8.10;1.00;;;;;;5108550;28;20431;-50
2022/05/03 05:42:21;;;;;;;15.33;10.63;;;8.10;1.00;;;;;;5103052;28;20422;-51
2022/05/03 05:44:47;;;;;;;17.73;10.60;;;8.10;1.00;;;;;;5102986;28;20265;-49
2022/05/03 05:47:13;;;;;;;26.27;12.80;;;8.10;1.00;;;;;;5102923;28;20199;-51
2022/05/03 05:49:39;;;;;;;20.10;12.50;;;8.20;1.00;;;;;;5099019;28;20188;-50
2022/05/03 05:54:49;;;;;;;18.90;11.80;;;8.30;14.30;;;;;;5104529;28;20231;-61
2022/05/03 05:57:15;;;;;;;37.53;13.27;;;8.40;3.40;;;;;;5107848;28;22383;-57
2022/05/03 05:59:41;;;;;;;18.90;12.47;;;8.50;1.00;;;;;;5106886;27;20519;-55
2022/05/03 06:02:07;;;;;;;23.57;14.43;;;8.50;5.30;;;;;;5105644;28;20279;-56
2022/05/03 06:04:33;;;;;;;24.73;15.20;;;8.60;24.30;;;;;;5106916;28;20268;-56
2022/05/03 06:06:59;;;;;;;25.80;16.10;;;8.60;38.60;;;;;;5102659;28;20812;-56
2022/05/03 06:09:24;;;;;;;27.83;16.40;;;8.70;81.00;;;;;;5103322;28;20476;-56
2022/05/03 06:11:50;;;;;;;28.13;16.47;;;8.70;68.20;;;;;;5104670;28;20185;-56
2022/05/03 06:14:15;;;;;;;27.63;15.47;;;8.70;85.10;;;;;;5092793;28;20557;-56
2022/05/03 06:16:52;;;;;;;32.43;16.80;;;8.80;99.90;;;;;;5098568;28;20189;-56
2022/05/03 06:19:18;;;;;;;30.27;15.40;;;8.80;93.70;;;;;;5106230;28;20238;-56
2022/05/03 06:21:43;;;;;;;29.93;14.90;;;8.80;99.10;;;;;;5104743;28;20972;-57
2022/05/03 06:24:09;;;;;;;25.80;14.90;;;8.80;99.90;;;;;;5105471;27;20465;-56
2022/05/03 06:26:35;;;;;;;24.63;15.00;;;8.80;97.80;;;;;;5108972;27;20770;-56
2022/05/03 06:29:08;;;;;;;23.73;15.97;;;8.90;99.90;;;;;;5107518;28;20434;-58
2022/05/03 06:31:38;;;;;;;28.43;16.93;;;9.00;99.90;;;;;;5105179;28;20195;-56
2022/05/03 06:34:04;;;;;;;27.27;15.10;;;9.10;99.90;;;;;;5105393;28;20481;-56
2022/05/03 06:36:30;;;;;;;29.17;17.67;;;9.20;99.90;;;;;;5105360;28;20425;-56
2022/05/03 06:38:56;;;;;;;28.07;16.87;;;9.30;99.90;;;;;;5100673;28;20422;-58
2022/05/03 06:41:21;;;;;;;31.73;17.30;;;9.40;99.90;;;;;;5104969;28;20196;-57
2022/05/03 06:43:47;;;;;;;28.47;17.20;;;9.50;99.90;;;;;;5099749;28;20470;-57
2022/05/03 06:46:13;;;;;;;26.47;17.63;;;9.60;99.90;;;;;;5103386;27;20185;-56
2022/05/03 06:48:38;;;;;;;30.30;17.80;;;9.60;99.90;;;;;;5106550;28;20186;-56
2022/05/03 06:51:07;;;;;;;28.43;16.93;;;9.70;99.90;;;;;;5106520;28;20638;-56
2022/05/03 06:53:33;;;;;;;30.70;18.33;;;9.70;99.90;;;;;;5104059;27;20207;-57
2022/05/03 06:55:59;;;;;;;33.50;19.00;;;9.60;99.90;;;;;;5103089;28;20438;-57
2022/05/03 06:58:25;;;;;;;32.93;18.10;;;9.60;99.90;;;;;;5104691;28;20977;-57
2022/05/03 07:00:51;;;;;;;32.40;18.30;;;9.50;99.90;;;;;;5102036;28;20181;-57
2022/05/03 07:03:19;;;;;;;32.23;18.03;;;9.50;99.90;;;;;;5105382;27;20663;-57
2022/05/03 07:05:45;;;;;;;36.80;19.10;;;9.50;99.90;;;;;;5103551;27;20184;-57
2022/05/03 07:08:11;;;;;;;31.27;19.03;;;9.60;99.90;;;;;;5103569;27;20492;-57
2022/05/03 07:10:37;;;;;;;34.73;19.20;;;9.60;99.90;;;;;;5106703;28;20893;-57
2022/05/03 07:13:04;;;;;;;33.80;18.53;;;9.70;99.90;;;;;;5099894;28;20434;-56
2022/05/03 07:15:30;;;;;;;31.30;18.50;;;9.70;99.90;;;;;;5102478;28;20435;-51
2022/05/03 07:23:26;;;;;;;30.50;18.73;;;9.90;1.00;;;;;;5103751;28;20501;-50
2022/05/03 07:25:52;;;;;;;38.67;19.00;;;10.00;99.90;;;;;;5097411;28;20896;-50
2022/05/03 07:28:17;;;;;;;30.37;18.30;;;10.10;99.90;;;;;;5103128;27;20507;-50
2022/05/03 07:30:43;;;;;;;35.33;19.50;;;10.20;99.90;;;;;;5104478;27;20474;-50
2022/05/03 07:33:09;;;;;;;31.70;19.30;;;10.30;99.90;;;;;;5103817;28;20207;-50
2022/05/03 07:35:34;;;;;;;34.67;20.40;;;10.30;99.90;;;;;;5099945;28;20447;-50
2022/05/03 07:38:00;;;;;;;38.30;20.00;;;10.40;99.90;;;;;;5103485;27;20271;-50
2022/05/03 07:40:26;;;;;;;34.70;18.97;;;10.50;99.90;;;;;;5106892;28;20204;-50
2022/05/03 07:42:52;;;;;;;37.70;19.60;;;10.50;99.90;;;;;;5107879;28;20825;-50
2022/05/03 07:45:17;;;;;;;36.80;18.90;;;10.40;99.90;;;;;;5105229;27;20208;-50
2022/05/03 07:47:43;;;;;;;41.07;20.20;;;10.30;99.90;;;;;;5105294;28;20208;-50
2022/05/03 07:50:09;;;;;;;32.40;19.13;;;10.30;99.90;;;;;;5104421;28;20189;-50
2022/05/03 07:52:38;;;;;;;33.67;19.20;;;10.30;99.90;;;;;;5098247;28;20219;-56
2022/05/03 07:55:06;;;;;;;32.43;18.00;;;10.30;99.90;;;;;;5101503;28;20995;-57
2022/05/03 07:57:32;;;;;;;33.73;17.77;;;10.40;99.90;;;;;;5099692;28;20788;-56
2022/05/03 07:59:58;;;;;;;37.93;18.83;;;10.40;99.90;;;;;;5102109;28;20446;-56
2022/05/03 08:02:24;;;;;;;27.57;17.37;;;10.30;99.90;;;;;;5100678;28;20881;-57
2022/05/03 08:04:54;;;;;;;33.37;17.37;;;10.40;99.90;;;;;;5097338;28;20943;-56
2022/05/03 08:07:20;;;;;;;26.93;16.93;;;10.50;99.90;;;;;;5100050;28;20442;-56
2022/05/03 08:09:47;;;;;;;29.93;17.80;;;10.50;99.90;;;;;;5103989;28;20772;-56
2022/05/03 08:12:13;;;;;;;32.97;17.77;;;10.50;99.90;;;;;;5094659;28;20439;-56
2022/05/03 08:14:39;;;;;;;28.13;15.60;;;10.50;99.90;;;;;;5094912;28;20463;-56
2022/05/03 08:17:05;;;;;;;32.03;17.90;;;10.50;99.90;;;;;;5105934;28;20888;-57
2022/05/03 08:19:31;;;;;;;25.37;15.73;;;10.60;99.90;;;;;;5103250;28;20482;-56
2022/05/03 08:21:56;;;;;;;27.60;17.87;;;10.50;99.90;;;;;;5101641;28;20201;-57
2022/05/03 08:24:25;;;;;;;34.70;17.10;;;10.30;99.90;;;;;;5099570;28;20368;-56
2022/05/03 08:26:52;;;;;;;29.07;18.13;;;10.30;99.90;;;;;;5107641;28;20196;-57
2022/05/03 08:29:17;;;;;;;30.73;18.23;;;10.30;99.90;;;;;;5100731;28;21258;-57
2022/05/03 08:31:43;;;;;;;28.33;17.13;;;10.30;1.00;;;;;;5097426;28;20406;-57
2022/05/03 08:34:09;;;;;;;31.57;17.23;;;10.30;1.00;;;;;;5101704;28;20196;-50
2022/05/03 08:36:35;;;;;;;29.50;17.10;;;10.40;1.00;;;;;;5097436;28;20262;-50
2022/05/03 08:42:06;;;;;;;24.73;12.83;;;10.40;99.90;;;;;;5097403;28;20463;-50
2022/05/03 08:44:33;;;;;;;23.20;13.40;;;10.60;99.90;;;;;;5096821;28;20454;-50
2022/05/03 08:47:00;;;;;;;33.13;14.57;;;10.80;99.90;;;;;;5101356;28;20450;-50
2022/05/03 08:49:52;;;;;;;30.87;14.10;;;10.90;99.90;;;;;;5094759;28;20433;-50
2022/05/03 08:52:21;;;;;;;23.00;11.67;;;11.40;99.90;;;;;;5099055;28;20431;-50
2022/05/03 08:54:47;;;;;;;32.27;13.57;;;11.80;3.00;;;;;;5099217;28;20491;-50
2022/05/03 08:57:13;;;;;;;26.47;12.20;;;12.10;1.00;;;;;;5104051;28;20823;-49
2022/05/03 08:59:39;;;;;;;23.07;10.17;;;12.50;1.00;;;;;;5103591;28;20814;-49
2022/05/03 09:02:05;;;;;;;23.57;10.97;;;13.00;1.00;;;;;;5094828;28;20421;-49
2022/05/03 09:04:31;;;;;;;15.73;9.43;;;13.50;1.00;;;;;;5108921;28;20217;-49
2022/05/03 09:06:56;;;;;;;19.80;8.90;;;14.10;1.00;;;;;;5100669;28;20177;-50
2022/05/03 09:09:22;;;;;;;15.00;8.77;;;14.70;1.00;;;;;;5106745;27;20188;-50
2022/05/03 09:11:53;;;;;;;13.83;8.00;;;15.00;99.90;;;;;;5107234;28;20203;-50
2022/05/03 09:14:39;;;;;;;13.97;6.93;;;15.20;99.90;;;;;;5110061;27;20204;-53
2022/05/03 09:17:06;;;;;;;13.60;7.10;;;15.30;99.90;;;;;;5108375;27;20433;-53
2022/05/03 09:19:32;;;;;;;12.93;6.50;;;15.40;99.90;;;;;;5106721;27;20472;-54
2022/05/03 09:24:58;;;;;;;11.17;5.40;;;15.00;99.90;;;;;;5102884;28;20247;-53
2022/05/03 09:27:24;;;;;;;12.77;5.43;;;15.20;99.90;;;;;;5101315;28;21367;-53
2022/05/03 09:30:09;;;;;;;7.07;4.90;;;15.20;99.90;;;;;;5099917;28;20430;-53
2022/05/03 09:32:42;;;;;;;14.00;5.30;;;14.80;99.90;;;;;;5105343;27;20433;-50
2022/05/03 09:35:28;;;;;;;10.13;5.10;;;14.50;99.90;;;;;;5108693;28;20439;-50
2022/05/03 09:37:53;;;;;;;20.53;5.33;;;14.30;99.90;;;;;;5100997;28;20462;-49
2022/05/03 09:40:19;;;;;;;10.97;5.17;;;14.30;99.90;;;;;;5107937;28;20414;-49
2022/05/03 09:42:54;;;;;;;13.43;5.27;;;14.50;99.90;;;;;;5100581;28;20196;-50
2022/05/03 09:45:24;;;;;;;16.23;5.40;;;14.60;99.90;;;;;;5105256;28;20238;-49
2022/05/03 09:47:56;;;;;;;15.90;5.30;;;14.70;99.90;;;;;;5098108;28;20422;-49
2022/05/03 09:50:41;;;;;;;11.03;5.40;;;15.00;99.90;;;;;;5106025;28;20441;-49
2022/05/03 09:53:18;;;;;;;9.70;4.80;;;15.40;99.90;;;;;;5109806;28;20426;-49
2022/05/03 09:55:47;;;;;;;13.97;4.93;;;16.10;99.90;;;;;;5102395;28;20422;-53
2022/05/03 09:58:14;;;;;;;9.97;4.40;;;16.60;99.90;;;;;;5106745;28;20426;-53
2022/05/03 10:00:44;;;;;;;15.93;4.10;;;17.20;99.90;;;;;;5108342;28;20426;-53
2022/05/03 10:03:10;;;;;;;14.30;3.93;;;16.90;99.90;;;;;;5091957;28;20464;-53
2022/05/03 10:05:38;;;;;;;6.27;3.73;;;16.60;99.90;;;;;;5108301;28;20422;-49
2022/05/03 10:08:05;;;;;;;10.27;2.87;;;16.70;99.90;;;;;;5107069;27;20500;-53
2022/05/03 10:10:31;;;;;;;9.20;3.37;;;16.80;99.90;;;;;;5100864;28;20423;-53
2022/05/03 10:12:58;;;;;;;12.07;3.50;;;17.30;99.90;;;;;;5102363;28;20498;-53
2022/05/03 10:21:23;;;;;;;9.53;3.17;;;18.10;99.90;;;;;;5099137;27;20450;-53
2022/05/03 10:24:09;;;;;;;6.33;2.83;;;18.30;99.90;;;;;;5105122;28;20493;-52
2022/05/03 10:26:52;;;;;;;9.33;2.90;;;18.60;99.90;;;;;;5098145;28;20951;-53
2022/05/03 10:29:25;;;;;;;9.20;2.97;;;18.00;99.90;;;;;;5103631;28;20445;-53
2022/05/03 10:31:53;;;;;;;10.70;3.03;;;17.10;99.90;;;;;;5105789;28;20422;-53
2022/05/03 10:34:40;;;;;;;8.20;2.77;;;16.40;99.90;;;;;;5103647;28;20452;-53
2022/05/03 10:37:11;;;;;;;9.97;3.10;;;16.10;99.90;;;;;;5106608;28;20434;-53
2022/05/03 10:39:51;;;;;;;10.30;3.03;;;15.90;99.90;;;;;;5103611;28;20517;-53
2022/05/03 10:42:21;;;;;;;14.70;3.17;;;15.50;99.90;;;;;;5108000;28;20436;-53
2022/05/03 10:44:53;;;;;;;6.27;3.30;;;15.40;99.90;;;;;;5105138;28;20550;-55
2022/05/03 10:47:54;;;;;;;8.80;3.10;;;15.50;99.90;;;;;;5107997;27;21061;-49
2022/05/03 10:50:22;;;;;;;6.33;3.00;;;15.50;99.90;;;;;;5104237;28;20978;-49
2022/05/03 10:52:54;;;;;;;6.17;3.10;;;15.20;99.90;;;;;;5107412;27;20546;-49
2022/05/03 10:55:20;;;;;;;9.50;2.50;;;15.30;99.90;;;;;;5098136;28;20573;-49
2022/05/03 10:58:20;;;;;;;8.47;3.10;;;16.00;99.90;;;;;;5082859;28;20469;-49
2022/05/03 11:01:23;;;;;;;10.47;3.60;;;16.10;99.90;;;;;;5096920;28;20906;-49
2022/05/03 11:03:54;;;;;;;8.53;3.00;;;16.10;99.90;;;;;;5101723;27;20489;-49
2022/05/03 11:06:20;;;;;;;6.07;2.57;;;15.60;99.90;;;;;;5106143;28;20418;-48
2022/05/03 11:09:18;;;;;;;12.13;2.93;;;15.30;99.90;;;;;;5103655;27;20818;-49
2022/05/03 11:11:43;;;;;;;6.87;2.47;;;16.40;99.90;;;;;;5103061;28;20577;-52
2022/05/03 11:14:21;;;;;;;5.87;2.90;;;17.40;99.90;;;;;;5109271;28;20469;-52
2022/05/03 11:17:17;;;;;;;8.20;2.77;;;17.90;99.90;;;;;;5104181;28;20680;-52
2022/05/03 11:19:49;;;;;;;6.10;2.43;;;18.40;99.90;;;;;;5094131;28;20482;-53
2022/05/03 11:22:24;;;;;;;5.57;2.50;;;18.90;99.90;;;;;;5101340;28;20825;-52
2022/05/03 11:24:54;;;;;;;6.13;2.23;;;18.90;99.90;;;;;;5101017;28;20578;-52
2022/05/03 11:27:21;;;;;;;4.70;2.50;;;17.60;99.90;;;;;;5102211;28;20955;-52
2022/05/03 11:29:49;;;;;;;3.77;2.40;;;16.50;99.90;;;;;;5106853;28;20410;-53
2022/05/03 11:32:26;;;;;;;9.50;2.60;;;16.20;99.90;;;;;;5097282;28;20950;-53
2022/05/03 11:34:59;;;;;;;7.17;2.57;;;16.60;99.90;;;;;;5099883;28;20440;-56
2022/05/03 11:37:24;;;;;;;5.37;2.43;;;17.10;99.90;;;;;;5094768;28;20435;-53
2022/05/03 11:39:52;;;;;;;5.20;2.40;;;17.20;99.90;;;;;;5100053;28;21027;-53
2022/05/03 11:42:21;;;;;;;9.53;2.73;;;17.10;99.90;;;;;;5101916;28;20192;-53
2022/05/03 11:44:47;;;;;;;12.03;2.80;;;17.20;99.90;;;;;;5095439;28;20545;-53
2022/05/03 11:47:14;;;;;;;8.53;2.73;;;17.20;99.90;;;;;;5094386;28;20494;-53
2022/05/03 11:49:43;;;;;;;6.70;2.43;;;17.10;99.90;;;;;;5096461;28;20196;-52
2022/05/03 11:57:41;;;;;;;14.17;3.40;;;16.50;99.90;;;;;;5098355;28;20464;-52
2022/05/03 12:00:13;;;;;;;9.70;3.07;;;16.30;99.90;;;;;;5100502;28;20921;-52
2022/05/03 12:02:41;;;;;;;8.40;3.10;;;16.30;99.90;;;;;;5104243;28;20459;-52
2022/05/03 12:05:16;;;;;;;8.87;2.80;;;16.30;99.90;;;;;;5103083;28;20519;-53
2022/05/03 12:07:43;;;;;;;16.73;3.60;;;16.30;99.90;;;;;;5101900;28;21301;-52
2022/05/03 12:10:19;;;;;;;8.60;2.77;;;16.50;99.90;;;;;;5099700;28;21104;-53
2022/05/03 12:13:13;;;;;;;8.80;2.67;;;17.00;99.90;;;;;;5091144;28;20522;-53
2022/05/03 12:15:45;;;;;;;12.03;3.10;;;17.50;99.90;;;;;;5094605;28;20427;-53
2022/05/03 12:18:19;;;;;;;10.60;2.97;;;17.50;99.90;;;;;;5093483;28;20466;-52
2022/05/03 12:20:59;;;;;;;11.53;3.43;;;18.50;99.90;;;;;;5091281;28;20412;-53
2022/05/03 12:23:34;;;;;;;7.70;2.40;;;18.60;99.90;;;;;;5089217;28;20523;-52
2022/05/03 12:26:32;;;;;;;7.37;3.13;;;18.80;99.90;;;;;;5095394;28;20784;-52
2022/05/03 12:29:00;;;;;;;7.97;3.10;;;18.30;99.90;;;;;;5093901;28;20824;-53
2022/05/03 12:31:45;;;;;;;9.00;2.80;;;18.30;99.90;;;;;;5097880;28;20543;-52
2022/05/03 12:34:22;;;;;;;6.13;2.90;;;18.90;99.90;;;;;;5084554;28;21286;-53
2022/05/03 12:36:48;;;;;;;10.93;2.80;;;19.10;99.90;;;;;;5104656;28;20454;-52
2022/05/03 12:39:23;;;;;;;7.53;3.03;;;18.40;99.90;;;;;;5099301;28;20425;-52
2022/05/03 12:42:00;;;;;;;7.10;2.77;;;18.60;99.90;;;;;;5097428;28;20421;-52
2022/05/03 12:44:26;;;;;;;12.00;2.70;;;18.90;99.90;;;;;;5100811;28;20470;-53
2022/05/03 12:47:01;;;;;;;8.50;2.40;;;19.00;99.90;;;;;;5096653;28;20414;-52
2022/05/03 12:49:27;;;;;;;8.20;3.03;;;18.80;99.90;;;;;;5097520;28;20957;-52
2022/05/03 12:51:52;;;;;;;16.50;2.63;;;18.90;99.90;;;;;;5102376;28;20411;-53
2022/05/03 12:54:18;;;;;;;10.10;2.70;;;18.60;99.90;;;;;;5086128;28;20686;-54
2022/05/03 12:59:29;;;;;;;8.80;2.93;;;19.00;99.90;;;;;;5097600;28;20207;-52
2022/05/03 13:01:56;;;;;;;11.57;3.00;;;19.80;99.90;;;;;;5105065;28;20441;-51
2022/05/03 13:04:23;;;;;;;8.20;2.70;;;20.40;99.90;;;;;;5090067;28;20469;-52
2022/05/03 13:06:49;;;;;;;5.07;2.17;;;20.50;99.90;;;;;;5102333;28;20928;-52
2022/05/03 13:09:15;;;;;;;6.20;3.00;;;19.50;99.90;;;;;;5099664;28;20754;-52
2022/05/03 13:11:41;;;;;;;7.10;2.73;;;18.50;99.90;;;;;;5096870;28;20509;-53
2022/05/03 13:14:08;;;;;;;13.70;3.17;;;18.40;99.90;;;;;;5099566;28;20193;-52
2022/05/03 13:16:33;;;;;;;8.20;2.50;;;19.10;99.90;;;;;;5102554;28;20770;-52
2022/05/03 13:18:59;;;;;;;9.53;2.33;;;19.80;99.90;;;;;;5105141;28;20474;-52
2022/05/03 13:21:25;;;;;;;11.53;2.87;;;20.00;99.90;;;;;;5095634;28;20201;-52
2022/05/03 13:23:50;;;;;;;7.63;2.20;;;19.80;99.90;;;;;;5108080;28;20234;-52
2022/05/03 13:26:16;;;;;;;7.17;2.60;;;19.40;99.90;;;;;;5101391;28;20185;-52
2022/05/03 13:28:42;;;;;;;9.20;2.30;;;19.50;99.90;;;;;;5105018;28;20203;-52
2022/05/03 13:31:08;;;;;;;13.73;2.67;;;19.50;99.90;;;;;;5098983;28;20221;-50
2022/05/03 13:33:34;;;;;;;11.80;2.83;;;19.60;99.90;;;;;;5097226;28;20196;-51
2022/05/03 13:41:28;;;;;;;10.17;2.47;;;20.00;99.90;;;;;;5095603;28;20468;-52
2022/05/03 13:43:54;;;;;;;7.57;2.17;;;20.10;99.90;;;;;;5100870;28;20458;-52
2022/05/03 13:46:19;;;;;;;10.20;2.60;;;20.10;99.90;;;;;;5102342;28;21000;-52